Greenslough, Ireland
Current Conditions -  °F | °C
As of 11:30 AM on Saturday 25 Oct 2014 (Local Time) from EIDL Reporting Station
Scattered Clouds Scattered Clouds  
Wind Chill: 52°   Ceiling: Unl
Heat Index: 52°   Visibility: 6mi
Dew Point: 46°   Wind: 25mph
Humidity: 82%   Direction: 230°SW
Pressure: 29.71"   Gusts: 38mph
Location:  55.12°N, 7.9°W
Report Text: EIDL 251130Z 23022G33KT 9999 FEW010 SCT022 SCT045 11/08 Q1006
Loading
Personal Weather Stations






























Interactive Weather Map New forecast layout! Learn more

10-Day Weather Forecast

Advertisements
Track Severe Weather on mobile